Time;durP1;ratioP1;P1;durP2;ratioP2;P2;SDS_P1;SDS_P2;PMS_P1;PMS_P2;Temp;Humidity;BMP_temperature;BMP_pressure;BME280_temperature;BME280_humidity;BME280_pressure;Samples;Min_cycle;Max_cycle;Signal;HPM_P1;HPM_P2
2022/12/12 00:01:37;;;;;;;34.38;30.70;;;;;;;-4.61;100.00;101103.72;5123369;28;20027;-64
2022/12/12 00:04:08;;;;;;;33.22;29.85;;;;;;;-4.69;100.00;101089.66;5120511;28;20043;-64
2022/12/12 00:06:38;;;;;;;31.95;28.23;;;;;;;-4.65;100.00;101098.94;5123537;28;20440;-64
2022/12/12 00:09:09;;;;;;;31.73;27.35;;;;;;;-4.67;100.00;101099.06;5123258;28;20086;-65
2022/12/12 00:11:39;;;;;;;26.15;23.70;;;;;;;-4.71;100.00;101097.72;5123520;28;20074;-64
2022/12/12 00:14:10;;;;;;;33.50;28.25;;;;;;;-4.70;100.00;101103.81;5121503;28;20110;-64
2022/12/12 00:16:40;;;;;;;28.58;25.83;;;;;;;-4.77;100.00;101095.69;5123354;28;20036;-64
2022/12/12 00:19:10;;;;;;;33.38;29.83;;;;;;;-4.79;100.00;101105.53;5123374;28;20035;-65
2022/12/12 00:21:41;;;;;;;31.90;27.13;;;;;;;-4.85;100.00;101103.50;5123895;28;20619;-64
2022/12/12 00:24:11;;;;;;;30.40;27.25;;;;;;;-5.28;100.00;101051.56;5122907;28;20115;-64
2022/12/12 00:26:42;;;;;;;29.60;25.75;;;;;;;-5.11;100.00;101098.97;5126347;28;20027;-66
2022/12/12 00:29:12;;;;;;;28.38;25.35;;;;;;;-5.03;100.00;101108.78;5127164;28;20035;-64
2022/12/12 00:31:42;;;;;;;32.35;27.17;;;;;;;-5.00;100.00;101105.84;5126708;28;20078;-64
2022/12/12 00:34:13;;;;;;;31.38;28.17;;;;;;;-4.96;100.00;101115.09;5126456;28;20023;-63
2022/12/12 00:36:43;;;;;;;30.30;27.33;;;;;;;-5.08;100.00;101105.75;5127012;28;20283;-64
2022/12/12 00:39:14;;;;;;;39.53;26.40;;;;;;;-5.05;100.00;101109.88;5127000;28;20028;-64
2022/12/12 00:41:44;;;;;;;32.55;29.25;;;;;;;-5.12;100.00;101104.38;5126952;28;20111;-67
2022/12/12 00:44:15;;;;;;;31.95;27.08;;;;;;;-5.08;100.00;101113.66;5126062;28;20059;-65
2022/12/12 00:46:45;;;;;;;32.65;29.38;;;;;;;-5.17;100.00;101106.63;5126703;28;20074;-64
2022/12/12 00:49:16;;;;;;;38.58;27.70;;;;;;;-5.17;100.00;101107.44;5127037;28;20508;-64
2022/12/12 00:51:46;;;;;;;26.95;23.63;;;;;;;-5.15;100.00;101120.47;5126435;28;20042;-65
2022/12/12 00:54:17;;;;;;;29.83;26.88;;;;;;;-5.14;100.00;101109.78;5126225;28;20023;-67
2022/12/12 00:56:47;;;;;;;28.52;26.20;;;;;;;-5.11;100.00;101119.22;5126748;28;20027;-65
2022/12/12 00:59:18;;;;;;;33.42;27.42;;;;;;;-5.19;100.00;101103.31;5126701;28;20045;-65
2022/12/12 01:01:49;;;;;;;37.45;31.30;;;;;;;-5.13;100.00;101108.81;5126397;28;20530;-64
2022/12/12 01:04:19;;;;;;;26.70;24.10;;;;;;;-5.10;100.00;101118.22;5126275;28;20043;-65
2022/12/12 01:06:49;;;;;;;30.58;27.02;;;;;;;-5.14;100.00;101112.44;5126334;28;20527;-65
2022/12/12 01:09:20;;;;;;;33.13;29.40;;;;;;;-5.20;100.00;101117.47;5124865;29;20031;-67
2022/12/12 01:11:50;;;;;;;29.58;26.40;;;;;;;-5.23;100.00;101120.41;5125867;28;20019;-65
2022/12/12 01:14:20;;;;;;;37.65;27.77;;;;;;;-5.28;100.00;101125.28;5126191;28;20031;-65
2022/12/12 01:16:51;;;;;;;31.52;27.67;;;;;;;-5.27;100.00;101137.47;5126357;28;20102;-64
2022/12/12 01:19:22;;;;;;;34.50;26.27;;;;;;;-5.29;100.00;101129.72;5125132;28;20042;-65
2022/12/12 01:21:52;;;;;;;31.90;27.67;;;;;;;-5.34;100.00;101125.84;5125673;28;20407;-67
2022/12/12 01:24:22;;;;;;;28.70;25.75;;;;;;;-5.26;100.00;101145.22;5125783;28;20479;-64
2022/12/12 01:26:53;;;;;;;26.90;23.65;;;;;;;-5.27;100.00;101134.81;5126216;28;20039;-67
2022/12/12 01:29:23;;;;;;;30.17;27.52;;;;;;;-5.54;100.00;101091.75;5126134;28;20043;-65
2022/12/12 01:31:53;;;;;;;31.88;29.05;;;;;;;-5.27;100.00;101151.44;5124265;29;20027;-64
2022/12/12 01:34:24;;;;;;;28.42;25.48;;;;;;;-5.25;100.00;101146.88;5126271;28;20027;-64
2022/12/12 01:36:54;;;;;;;32.22;29.05;;;;;;;-5.16;100.00;101143.34;5125339;28;20050;-64
2022/12/12 01:39:25;;;;;;;31.80;28.05;;;;;;;-5.15;100.00;101152.91;5126118;28;20483;-65
2022/12/12 01:41:55;;;;;;;33.78;28.95;;;;;;;-5.18;100.00;101157.63;5125733;28;20028;-64
2022/12/12 01:44:36;;;;;;;34.97;28.98;;;;;;;-5.22;100.00;101159.75;5139526;23;20043;-67
2022/12/12 01:47:07;;;;;;;30.15;27.35;;;;;;;-5.34;100.00;101136.38;5138952;28;20042;-64
2022/12/12 01:49:38;;;;;;;29.88;27.17;;;;;;;-5.25;100.00;101156.56;5144930;28;20026;-64
2022/12/12 01:52:15;;;;;;;27.40;24.55;;;;;;;-5.24;100.00;101156.44;5145940;28;20058;-64
2022/12/12 01:54:50;;;;;;;32.80;28.58;;;;;;;-5.28;100.00;101159.50;5145964;28;20114;-64
2022/12/12 01:57:28;;;;;;;30.75;27.02;;;;;;;-5.30;100.00;101164.91;5146291;28;20121;-63
2022/12/12 02:00:00;;;;;;;31.25;25.38;;;;;;;-5.31;100.00;101165.03;5147202;28;20122;-62
2022/12/12 02:02:31;;;;;;;35.70;29.08;;;;;;;-5.39;100.00;101154.41;5146298;28;20109;-63
2022/12/12 02:05:07;;;;;;;29.80;26.85;;;;;;;-5.37;100.00;101168.25;5146162;28;20022;-64
2022/12/12 02:07:38;;;;;;;30.58;27.58;;;;;;;-5.44;100.00;101171.47;5146276;28;20038;-63
2022/12/12 02:10:08;;;;;;;32.45;27.90;;;;;;;-5.52;100.00;101146.88;5145938;28;20046;-65
2022/12/12 02:12:39;;;;;;;33.15;27.45;;;;;;;-5.36;100.00;101165.47;5145305;28;20019;-64
2022/12/12 02:15:09;;;;;;;32.67;26.45;;;;;;;-5.35;100.00;101161.03;5145590;28;20111;-65
2022/12/12 02:17:59;;;;;;;29.05;26.10;;;;;;;-5.37;100.00;101168.25;5145797;28;20078;-65
2022/12/12 02:21:01;;;;;;;29.63;27.00;;;;;;;-5.45;100.00;101164.53;5145521;28;20490;-65
2022/12/12 02:23:49;;;;;;;36.72;27.73;;;;;;;-5.66;100.00;101163.09;5145530;28;20510;-65
2022/12/12 02:26:53;;;;;;;32.22;28.27;;;;;;;-5.50;100.00;101164.16;5145776;28;20031;-65
2022/12/12 02:30:02;;;;;;;33.03;29.70;;;;;;;-5.57;100.00;101162.25;5145411;28;20023;-64
2022/12/12 02:32:46;;;;;;;27.17;24.63;;;;;;;-5.63;100.00;101174.16;5143676;28;20041;-65
2022/12/12 02:35:43;;;;;;;34.42;25.30;;;;;;;-5.72;100.00;101169.75;5145350;28;20026;-66
2022/12/12 02:38:21;;;;;;;28.33;25.25;;;;;;;-5.68;100.00;101171.13;5145390;28;20054;-65
2022/12/12 02:41:12;;;;;;;27.92;25.20;;;;;;;-5.64;100.00;101171.69;5145182;28;20506;-65
2022/12/12 02:43:58;;;;;;;29.90;26.83;;;;;;;-5.63;100.00;101170.72;5144461;28;20031;-65
2022/12/12 02:46:47;;;;;;;30.90;24.70;;;;;;;-5.70;100.00;101167.81;5145052;28;20034;-65
2022/12/12 02:49:23;;;;;;;28.20;25.50;;;;;;;-5.84;100.00;101160.41;5144115;28;20483;-64
2022/12/12 02:51:54;;;;;;;30.02;26.70;;;;;;;-5.74;100.00;101171.69;5144527;28;20030;-65
2022/12/12 02:54:25;;;;;;;29.45;26.38;;;;;;;-5.76;100.00;101173.63;5144624;28;20575;-65
2022/12/12 02:56:58;;;;;;;28.48;26.13;;;;;;;-5.78;100.00;101163.28;5144199;28;20110;-65
2022/12/12 02:59:39;;;;;;;34.58;26.55;;;;;;;-5.77;100.00;101171.97;5144306;28;20105;-65
2022/12/12 03:02:28;;;;;;;26.85;24.05;;;;;;;-5.75;100.00;101164.78;5143704;28;20042;-65
2022/12/12 03:08:02;;;;;;;30.50;27.38;;;;;;;-5.83;100.00;101170.78;5144431;28;20849;-65
2022/12/12 03:11:01;;;;;;;24.63;22.27;;;;;;;-5.86;100.00;101178.13;5142879;28;20039;-67
2022/12/12 03:13:51;;;;;;;30.10;26.70;;;;;;;-5.92;100.00;101168.19;5143579;28;20391;-67
2022/12/12 03:16:31;;;;;;;26.58;23.70;;;;;;;-5.90;100.00;101177.59;5143955;28;20086;-66
2022/12/12 03:19:09;;;;;;;31.05;28.23;;;;;;;-5.92;100.00;101181.34;5143872;28;20387;-65
2022/12/12 03:21:50;;;;;;;27.70;25.20;;;;;;;-5.93;100.00;101177.03;5144047;28;20026;-65
2022/12/12 03:24:29;;;;;;;28.77;25.73;;;;;;;-5.91;100.00;101175.09;5143572;28;20030;-64
2022/12/12 03:27:24;;;;;;;27.52;24.63;;;;;;;-5.94;100.00;101183.28;5144206;28;20058;-64
2022/12/12 03:30:08;;;;;;;28.58;23.85;;;;;;;-5.94;100.00;101194.63;5142919;28;20030;-64
2022/12/12 03:32:51;;;;;;;29.67;25.88;;;;;;;-5.96;100.00;101190.47;5143684;28;20034;-64
2022/12/12 03:35:26;;;;;;;32.92;26.50;;;;;;;-5.91;100.00;101188.25;5143195;28;20031;-65
2022/12/12 03:38:06;;;;;;;28.45;25.48;;;;;;;-5.97;100.00;101163.34;5144019;28;20027;-65
2022/12/12 03:40:43;;;;;;;28.75;25.33;;;;;;;-5.85;100.00;101187.66;5143621;28;20482;-65
2022/12/12 03:43:20;;;;;;;29.15;26.25;;;;;;;-5.86;100.00;101184.19;5143388;28;20030;-65
2022/12/12 03:45:59;;;;;;;29.02;26.00;;;;;;;-5.84;100.00;101181.44;5143405;28;20019;-66
2022/12/12 03:48:33;;;;;;;29.00;22.83;;;;;;;-5.80;100.00;101185.44;5143688;28;20483;-64
2022/12/12 03:51:10;;;;;;;28.50;25.13;;;;;;;-5.86;100.00;101180.75;5143848;28;20027;-68
2022/12/12 03:54:00;;;;;;;28.17;23.23;;;;;;;-5.85;100.00;101190.28;5143272;28;20027;-65
2022/12/12 03:56:36;;;;;;;30.30;27.05;;;;;;;-5.89;100.00;101181.06;5143296;28;20110;-66
2022/12/12 03:59:15;;;;;;;35.85;24.40;;;;;;;-5.85;100.00;101190.28;5143092;28;20348;-66
2022/12/12 04:02:06;;;;;;;26.08;23.75;;;;;;;-5.93;100.00;101190.19;5147678;28;20089;-64
2022/12/12 04:04:47;;;;;;;28.50;25.60;;;;;;;-6.02;100.00;101193.66;5147232;28;20482;-67
2022/12/12 04:07:27;;;;;;;29.60;26.05;;;;;;;-6.05;100.00;101193.94;5147638;28;20106;-66
2022/12/12 04:13:00;;;;;;;28.05;25.08;;;;;;;-5.88;100.00;101190.56;5147250;28;20105;-66
2022/12/12 04:15:55;;;;;;;35.65;26.98;;;;;;;-5.74;100.00;101187.47;5147553;28;20042;-67
2022/12/12 04:18:59;;;;;;;28.35;25.63;;;;;;;-5.78;100.00;101191.38;5146089;28;20117;-66
2022/12/12 04:24:34;;;;;;;26.88;24.23;;;;;;;-5.91;100.00;101194.34;5147373;28;20037;-65
2022/12/12 04:27:26;;;;;;;30.90;28.13;;;;;;;-5.94;100.00;101202.50;5147345;28;20516;-66
2022/12/12 04:30:06;;;;;;;28.88;25.80;;;;;;;-6.01;100.00;101198.78;5147461;28;20033;-65
2022/12/12 04:32:57;;;;;;;28.27;23.90;;;;;;;-6.09;100.00;101206.56;5146408;28;20495;-65
2022/12/12 04:35:48;;;;;;;27.50;23.40;;;;;;;-6.06;100.00;101202.81;5147190;28;20526;-65
2022/12/12 04:38:22;;;;;;;30.67;27.70;;;;;;;-6.10;100.00;101202.25;5147442;28;20022;-64
2022/12/12 04:40:56;;;;;;;28.05;25.50;;;;;;;-6.13;100.00;101203.38;5146080;28;20046;-64
2022/12/12 04:43:33;;;;;;;29.77;25.52;;;;;;;-6.03;100.00;101213.03;5145979;28;20027;-65
2022/12/12 04:46:11;;;;;;;28.75;26.13;;;;;;;-6.15;100.00;101200.06;5146979;28;20427;-65
2022/12/12 04:48:46;;;;;;;29.60;26.48;;;;;;;-6.17;100.00;101196.72;5146698;28;20142;-65
2022/12/12 04:51:25;;;;;;;31.40;28.23;;;;;;;-6.14;100.00;101217.47;5146328;28;20390;-65
2022/12/12 04:54:04;;;;;;;28.27;25.33;;;;;;;-6.13;100.00;101213.06;5145643;28;20030;-65
2022/12/12 04:56:39;;;;;;;31.77;26.83;;;;;;;-6.12;100.00;101201.56;5145021;28;20153;-66
2022/12/12 04:59:09;;;;;;;27.42;24.58;;;;;;;-6.25;100.00;101178.19;5146037;28;20022;-65
2022/12/12 05:02:04;;;;;;;34.95;26.70;;;;;;;-5.94;100.00;101206.94;5146684;28;20407;-64
2022/12/12 05:04:55;;;;;;;28.05;25.08;;;;;;;-5.94;100.00;101206.94;5146295;28;20023;-65
2022/12/12 05:07:47;;;;;;;30.45;27.33;;;;;;;-6.02;100.00;101209.44;5146531;28;20041;-65
2022/12/12 05:10:18;;;;;;;27.33;24.52;;;;;;;-6.45;100.00;101162.59;5146225;28;20022;-64
2022/12/12 05:12:52;;;;;;;31.55;23.98;;;;;;;-6.21;100.00;101211.13;5145293;28;20023;-64
2022/12/12 05:15:23;;;;;;;29.27;26.60;;;;;;;-6.23;100.00;101212.22;5146188;28;20039;-64
2022/12/12 05:18:01;;;;;;;27.90;24.48;;;;;;;-6.36;100.00;101209.06;5146305;28;20041;-64
2022/12/12 05:20:32;;;;;;;26.40;23.88;;;;;;;-6.38;100.00;101203.09;5146389;28;20066;-65
2022/12/12 05:23:02;;;;;;;26.17;23.30;;;;;;;-6.28;100.00;101210.00;5145713;28;20054;-67
2022/12/12 05:25:33;;;;;;;25.75;23.60;;;;;;;-6.28;100.00;101215.25;5146409;28;20537;-65
2022/12/12 05:28:03;;;;;;;30.38;26.63;;;;;;;-6.30;100.00;101213.72;5145744;28;20039;-64
2022/12/12 05:30:34;;;;;;;31.52;25.33;;;;;;;-6.39;100.00;101212.78;5146132;28;20062;-65
2022/12/12 05:33:04;;;;;;;28.95;26.05;;;;;;;-6.34;100.00;101215.81;5145285;28;20397;-66
2022/12/12 05:35:35;;;;;;;32.33;26.58;;;;;;;-6.30;100.00;101221.63;5146234;28;20027;-65
2022/12/12 05:38:05;;;;;;;29.85;26.88;;;;;;;-6.28;100.00;101217.88;5145738;28;20438;-65
2022/12/12 05:40:36;;;;;;;27.17;24.27;;;;;;;-6.31;100.00;101228.66;5146044;28;20050;-65
2022/12/12 05:43:06;;;;;;;28.08;24.38;;;;;;;-6.34;100.00;101220.22;5145486;28;20031;-65
2022/12/12 05:45:37;;;;;;;28.30;24.52;;;;;;;-6.37;100.00;101226.63;5145786;28;20070;-65
2022/12/12 05:48:07;;;;;;;30.63;24.52;;;;;;;-6.41;100.00;101213.88;5145668;28;20086;-65
2022/12/12 05:50:37;;;;;;;32.47;26.60;;;;;;;-6.36;100.00;101228.28;5145650;28;20058;-64
2022/12/12 05:53:08;;;;;;;30.75;26.65;;;;;;;-6.39;100.00;101225.94;5143535;28;20026;-64
2022/12/12 05:55:38;;;;;;;28.15;24.17;;;;;;;-6.35;100.00;101223.84;5145684;28;20102;-65
2022/12/12 05:58:09;;;;;;;31.48;25.27;;;;;;;-6.36;100.00;101223.03;5145664;28;20118;-64
2022/12/12 06:00:39;;;;;;;28.60;25.67;;;;;;;-6.70;100.00;101164.78;5145435;28;20250;-67
2022/12/12 06:03:09;;;;;;;30.08;24.58;;;;;;;-6.38;100.00;101221.50;5144731;28;20101;-66
2022/12/12 06:05:40;;;;;;;30.55;27.60;;;;;;;-6.43;100.00;101224.53;5145175;28;20554;-65
2022/12/12 06:08:12;;;;;;;25.73;23.55;;;;;;;-6.62;100.00;101191.19;5114979;28;20392;-66
2022/12/12 06:10:44;;;;;;;29.48;26.75;;;;;;;-6.41;100.00;101224.41;5122672;28;20054;-65
2022/12/12 06:13:14;;;;;;;33.05;27.08;;;;;;;-6.36;100.00;101224.81;5130228;28;20075;-65
2022/12/12 06:15:45;;;;;;;25.40;22.77;;;;;;;-6.36;100.00;101232.72;5143529;28;20614;-67
2022/12/12 06:18:15;;;;;;;31.17;26.20;;;;;;;-6.42;100.00;101234.06;5130101;28;20027;-66
2022/12/12 06:20:45;;;;;;;27.98;25.02;;;;;;;-6.48;100.00;101234.63;5124920;28;20026;-65
2022/12/12 06:23:16;;;;;;;27.27;24.67;;;;;;;-6.52;100.00;101235.84;5124507;28;20039;-66
2022/12/12 06:25:49;;;;;;;31.50;28.33;;;;;;;-6.60;100.00;101226.00;5123843;29;20042;-66
2022/12/12 06:28:19;;;;;;;31.88;25.42;;;;;;;-6.63;100.00;101214.94;5124518;29;20507;-66
2022/12/12 06:30:50;;;;;;;26.23;24.00;;;;;;;-6.49;100.00;101238.22;5124628;28;20035;-66
2022/12/12 06:33:20;;;;;;;28.60;25.83;;;;;;;-6.50;100.00;101247.06;5123464;28;20039;-65
2022/12/12 06:35:58;;;;;;;28.80;26.10;;;;;;;-6.52;100.00;101251.63;5124791;28;20037;-64
2022/12/12 06:38:29;;;;;;;27.20;24.02;;;;;;;-6.55;100.00;101251.88;5123526;29;20070;-64
2022/12/12 06:41:05;;;;;;;34.75;28.30;;;;;;;-6.60;100.00;101249.66;5124136;28;20574;-64
2022/12/12 06:43:36;;;;;;;28.23;25.25;;;;;;;-6.82;100.00;101224.47;5123909;28;20122;-65
2022/12/12 06:46:10;;;;;;;30.70;24.58;;;;;;;-6.61;100.00;101253.25;5124848;28;20086;-66
2022/12/12 06:48:41;;;;;;;27.20;24.33;;;;;;;-6.67;100.00;101266.94;5124481;28;20027;-64
2022/12/12 06:51:14;;;;;;;36.10;24.48;;;;;;;-6.69;100.00;101268.03;5124083;28;20098;-64
2022/12/12 06:53:45;;;;;;;29.55;26.05;;;;;;;-6.74;100.00;101264.97;5123603;28;20019;-65
2022/12/12 06:56:18;;;;;;;30.58;27.73;;;;;;;-6.93;100.00;101229.81;5124465;28;20039;-66
2022/12/12 06:58:50;;;;;;;29.05;26.05;;;;;;;-6.83;100.00;101245.59;5123008;29;20034;-65
2022/12/12 07:01:22;;;;;;;32.10;25.45;;;;;;;-6.70;100.00;101271.63;5124345;28;20035;-64
2022/12/12 07:03:52;;;;;;;25.20;22.73;;;;;;;-6.70;100.00;101266.38;5123791;28;20450;-65
2022/12/12 07:06:23;;;;;;;30.88;27.60;;;;;;;-6.71;100.00;101275.22;5124635;28;20162;-64
2022/12/12 07:08:54;;;;;;;28.88;25.27;;;;;;;-6.68;100.00;101270.53;5124425;28;20023;-63
2022/12/12 07:11:25;;;;;;;28.60;25.52;;;;;;;-6.67;100.00;101276.63;5119684;28;20042;-63
2022/12/12 07:13:56;;;;;;;30.00;25.13;;;;;;;-6.65;100.00;101272.06;5123139;28;20400;-65
2022/12/12 07:16:26;;;;;;;26.40;24.02;;;;;;;-6.67;100.00;101264.31;5122437;29;20027;-64
2022/12/12 07:18:57;;;;;;;27.23;24.65;;;;;;;-6.63;100.00;101275.34;5122993;29;20285;-64
2022/12/12 07:21:27;;;;;;;23.23;20.88;;;;;;;-6.66;100.00;101278.28;5124107;28;20034;-65
2022/12/12 07:23:58;;;;;;;27.75;24.10;;;;;;;-6.74;100.00;101272.84;5130883;28;20047;-65
2022/12/12 07:26:28;;;;;;;30.15;27.20;;;;;;;-6.63;100.00;101289.31;5130078;28;20031;-64
2022/12/12 07:28:58;;;;;;;25.88;23.20;;;;;;;-6.60;100.00;101285.59;5122119;29;20419;-64
2022/12/12 07:31:29;;;;;;;28.00;25.02;;;;;;;-6.72;100.00;101253.38;5124192;28;20067;-65
2022/12/12 07:34:00;;;;;;;25.33;22.98;;;;;;;-6.56;100.00;101284.38;5123401;28;20093;-65
2022/12/12 07:36:30;;;;;;;30.67;27.33;;;;;;;-6.62;100.00;101279.66;5124641;28;20037;-63
2022/12/12 07:39:01;;;;;;;25.05;22.73;;;;;;;-6.60;100.00;101282.97;5123894;28;20106;-63
2022/12/12 07:41:31;;;;;;;30.00;26.60;;;;;;;-6.53;100.00;101295.44;5123687;28;20042;-63
2022/12/12 07:46:39;;;;;;;31.17;27.50;;;;;;;-6.60;100.00;101298.72;5156706;28;20073;-67
2022/12/12 07:49:10;;;;;;;29.48;25.77;;;;;;;-6.66;100.00;101291.41;5163642;28;20026;-66
2022/12/12 07:51:40;;;;;;;31.23;27.58;;;;;;;-6.49;100.00;101290.75;5163888;28;20023;-66
2022/12/12 07:54:11;;;;;;;32.10;28.70;;;;;;;-6.45;100.00;101293.94;5163812;28;20106;-66
2022/12/12 07:56:41;;;;;;;28.00;25.05;;;;;;;-6.47;100.00;101302.78;5163801;28;20037;-65
2022/12/12 07:59:12;;;;;;;32.53;25.23;;;;;;;-6.46;100.00;101306.25;5163767;28;20050;-66
2022/12/12 08:01:43;;;;;;;33.90;27.15;;;;;;;-6.39;100.00;101317.88;5164611;28;20034;-66
2022/12/12 08:04:13;;;;;;;31.20;24.17;;;;;;;-6.40;100.00;101312.75;5166180;28;20097;-66
2022/12/12 08:06:44;;;;;;;26.15;23.55;;;;;;;-6.28;100.00;101314.28;5167004;28;20022;-66
2022/12/12 08:09:14;;;;;;;36.00;25.98;;;;;;;-6.44;100.00;101304.31;5165194;28;20030;-65
2022/12/12 08:11:44;;;;;;;31.10;23.73;;;;;;;-6.43;100.00;101311.22;5163943;28;20030;-65
2022/12/12 08:14:15;;;;;;;27.10;24.05;;;;;;;-6.27;100.00;101323.84;5146496;28;20105;-67
2022/12/12 08:16:45;;;;;;;29.30;26.15;;;;;;;-6.27;100.00;101324.66;5160165;28;20031;-66
2022/12/12 08:19:17;;;;;;;25.95;23.25;;;;;;;-6.24;100.00;101321.78;5162216;28;20577;-66
2022/12/12 08:21:47;;;;;;;26.77;23.98;;;;;;;-6.25;100.00;101328.00;5163281;28;20402;-66
2022/12/12 08:24:17;;;;;;;29.10;23.95;;;;;;;-6.17;100.00;101329.94;5163772;28;20019;-66
2022/12/12 08:26:49;;;;;;;32.35;27.92;;;;;;;-6.19;100.00;101331.88;5146332;28;20034;-66
2022/12/12 08:29:20;;;;;;;32.08;25.27;;;;;;;-6.06;100.00;101329.00;5164197;28;20018;-66
2022/12/12 08:31:50;;;;;;;28.90;26.10;;;;;;;-5.96;100.00;101343.81;5146041;28;20031;-66
2022/12/12 08:34:20;;;;;;;28.83;23.88;;;;;;;-5.92;100.00;101336.47;5163813;28;20038;-66
2022/12/12 08:36:51;;;;;;;29.27;26.55;;;;;;;-5.90;100.00;101345.06;5164182;28;20019;-66
2022/12/12 08:39:21;;;;;;;28.88;26.17;;;;;;;-5.86;100.00;101342.00;5146098;28;20030;-66
2022/12/12 08:41:52;;;;;;;33.80;25.50;;;;;;;-5.83;100.00;101340.88;5163524;28;20034;-67
2022/12/12 08:44:22;;;;;;;29.23;26.08;;;;;;;-5.73;100.00;101336.44;5163414;28;20025;-66
2022/12/12 08:46:53;;;;;;;38.92;27.77;;;;;;;-5.69;100.00;101337.81;5165475;28;20107;-67
2022/12/12 08:49:24;;;;;;;28.02;25.15;;;;;;;-5.65;100.00;101336.56;5167240;28;20027;-66
2022/12/12 08:51:54;;;;;;;32.17;26.73;;;;;;;-5.62;100.00;101336.31;5166773;28;20045;-67
2022/12/12 08:54:24;;;;;;;36.33;27.80;;;;;;;-5.75;100.00;101311.25;5167439;28;20049;-66
2022/12/12 08:56:55;;;;;;;34.50;24.45;;;;;;;-5.49;100.00;101334.22;5166620;28;20037;-66
2022/12/12 08:59:25;;;;;;;25.90;22.73;;;;;;;-5.40;100.00;101336.97;5166832;28;20049;-67
2022/12/12 09:01:56;;;;;;;27.85;25.17;;;;;;;-5.35;100.00;101342.66;5148954;28;20447;-67
2022/12/12 09:04:26;;;;;;;25.27;22.60;;;;;;;-5.33;100.00;101331.00;5166387;28;20029;-65
2022/12/12 09:06:56;;;;;;;31.60;24.35;;;;;;;-5.28;100.00;101333.22;5149268;28;20530;-66
2022/12/12 09:09:27;;;;;;;27.40;24.65;;;;;;;-5.23;100.00;101329.19;5148586;28;20030;-66
2022/12/12 09:11:57;;;;;;;34.10;27.40;;;;;;;-5.17;100.00;101335.66;5165682;28;20015;-66
2022/12/12 09:14:28;;;;;;;34.45;24.40;;;;;;;-5.22;100.00;101327.41;5166048;28;20033;-66
2022/12/12 09:16:58;;;;;;;32.30;23.45;;;;;;;-5.11;100.00;101340.38;5166488;28;20022;-66
2022/12/12 09:19:28;;;;;;;27.08;24.08;;;;;;;-5.07;100.00;101341.75;5166304;28;20026;-66
2022/12/12 09:21:59;;;;;;;31.45;24.38;;;;;;;-5.01;100.00;101335.91;5165648;28;20049;-65
2022/12/12 09:24:29;;;;;;;25.50;23.02;;;;;;;-5.49;100.00;101265.81;5166202;28;20023;-65
2022/12/12 09:27:00;;;;;;;39.63;25.73;;;;;;;-4.95;100.00;101327.44;5166101;28;20027;-67
2022/12/12 09:29:30;;;;;;;36.13;25.25;;;;;;;-4.92;100.00;101336.88;5165987;28;20033;-66
2022/12/12 09:32:05;;;;;;;25.85;23.25;;;;;;;-4.98;100.00;101322.47;5165465;28;20101;-66
2022/12/12 09:34:36;;;;;;;26.98;24.17;;;;;;;-4.80;100.00;101341.78;5165598;28;20053;-66
2022/12/12 09:37:07;;;;;;;29.25;24.98;;;;;;;-4.74;100.00;101336.94;5148546;28;20029;-66
2022/12/12 09:39:37;;;;;;;24.45;21.98;;;;;;;-4.69;100.00;101342.59;5166047;28;20489;-66
2022/12/12 09:42:23;;;;;;;30.65;25.88;;;;;;;-4.76;100.00;101323.91;5165581;28;20545;-66
2022/12/12 09:45:06;;;;;;;25.20;22.38;;;;;;;-4.61;100.00;101346.16;5165718;28;20027;-66
2022/12/12 09:47:44;;;;;;;26.98;22.55;;;;;;;-4.70;100.00;101314.59;5166046;28;20037;-67
2022/12/12 09:50:18;;;;;;;31.88;22.60;;;;;;;-4.53;100.00;101337.50;5148485;28;20379;-66
2022/12/12 09:52:49;;;;;;;25.73;21.77;;;;;;;-4.50;100.00;101342.50;5164996;28;20054;-66
2022/12/12 09:55:19;;;;;;;24.42;22.23;;;;;;;-4.48;100.00;101333.47;5165086;28;20112;-67
2022/12/12 09:58:15;;;;;;;25.02;22.23;;;;;;;-4.46;100.00;101336.78;5165346;28;20026;-67
2022/12/12 10:01:00;;;;;;;25.00;21.15;;;;;;;-4.56;100.00;101311.44;5164848;28;20058;-68
2022/12/12 10:03:55;;;;;;;25.25;22.02;;;;;;;-4.36;100.00;101338.56;5146630;28;20486;-66
2022/12/12 10:06:33;;;;;;;25.02;22.27;;;;;;;-4.34;100.00;101332.16;5165549;28;20022;-66
2022/12/12 10:09:32;;;;;;;27.75;23.58;;;;;;;-4.30;100.00;101335.31;5147665;28;20030;-66
2022/12/12 10:12:06;;;;;;;24.50;21.93;;;;;;;-4.33;100.00;101325.88;5164185;28;20030;-66
2022/12/12 10:15:07;;;;;;;31.63;24.30;;;;;;;-4.19;100.00;101343.03;5165012;28;20097;-66
2022/12/12 10:17:42;;;;;;;27.55;22.80;;;;;;;-4.14;100.00;101330.22;5164087;28;20502;-66
2022/12/12 10:20:12;;;;;;;23.42;21.27;;;;;;;-4.12;100.00;101325.63;5164630;28;20065;-66
2022/12/12 10:22:59;;;;;;;21.45;19.30;;;;;;;-4.22;100.00;101307.22;5164541;28;20054;-67
2022/12/12 10:25:48;;;;;;;33.97;23.08;;;;;;;-4.03;100.00;101318.59;5164769;28;20027;-66
2022/12/12 10:28:23;;;;;;;25.98;23.45;;;;;;;-3.99;100.00;101315.53;5147343;28;20026;-66
2022/12/12 10:31:05;;;;;;;24.45;21.75;;;;;;;-3.94;100.00;101323.00;5149258;28;20039;-66
2022/12/12 10:34:16;;;;;;;28.25;22.90;;;;;;;-3.89;100.00;101326.00;5144133;28;20109;-66
2022/12/12 10:36:56;;;;;;;28.35;22.02;;;;;;;-3.82;100.00;101327.91;5127114;28;20037;-66
2022/12/12 10:39:29;;;;;;;23.38;20.85;;;;;;;-3.78;100.00;101334.53;5144591;28;20396;-65
2022/12/12 10:42:10;;;;;;;23.23;20.10;;;;;;;-3.74;100.00;101319.22;5160386;28;20165;-66
2022/12/12 10:44:53;;;;;;;21.80;19.60;;;;;;;-3.68;100.00;101330.97;5163652;28;20109;-66
2022/12/12 10:47:24;;;;;;;28.83;21.33;;;;;;;-3.64;100.00;101325.25;5146692;28;20037;-66
2022/12/12 10:50:06;;;;;;;23.98;21.23;;;;;;;-3.60;100.00;101323.13;5146416;28;20030;-65
2022/12/12 10:52:37;;;;;;;29.83;25.27;;;;;;;-3.55;100.00;101311.16;5163707;28;20041;-65
2022/12/12 10:55:17;;;;;;;23.45;20.77;;;;;;;-3.43;100.00;101323.09;5163594;28;20018;-65
2022/12/12 10:58:00;;;;;;;26.13;21.10;;;;;;;-3.33;100.00;101322.19;5163684;28;20643;-65
2022/12/12 11:00:39;;;;;;;24.45;22.00;;;;;;;-3.28;100.00;101323.38;5163962;28;20088;-66
2022/12/12 11:03:25;;;;;;;23.65;20.98;;;;;;;-3.20;100.00;101319.97;5163739;28;20033;-66
2022/12/12 11:05:56;;;;;;;21.40;19.20;;;;;;;-3.11;100.00;101316.38;5163382;28;20372;-66
2022/12/12 11:08:30;;;;;;;24.40;21.98;;;;;;;-3.04;100.00;101316.59;5163149;28;20041;-67
2022/12/12 11:11:20;;;;;;;25.00;21.38;;;;;;;-3.02;100.00;101304.88;5163644;28;20431;-65
2022/12/12 11:13:52;;;;;;;22.33;20.05;;;;;;;-2.89;100.00;101301.84;5163237;28;20026;-66
2022/12/12 11:16:28;;;;;;;20.42;18.33;;;;;;;-2.81;100.00;101301.84;5163304;28;20074;-66
2022/12/12 11:19:20;;;;;;;24.05;19.25;;;;;;;-2.71;100.00;101297.28;5163607;28;20049;-66
2022/12/12 11:21:54;;;;;;;20.75;18.40;;;;;;;-2.64;100.00;101292.19;5163565;28;20037;-66
2022/12/12 11:24:30;;;;;;;25.63;21.42;;;;;;;-2.54;100.00;101306.09;5163383;28;20026;-68
2022/12/12 11:27:04;;;;;;;25.50;20.77;;;;;;;-2.48;100.00;101302.81;5164114;28;20030;-67
2022/12/12 11:29:56;;;;;;;25.90;22.40;;;;;;;-2.37;100.00;101286.66;5165125;28;20371;-67
2022/12/12 11:32:36;;;;;;;23.98;20.02;;;;;;;-2.32;100.00;101294.13;5163356;28;20033;-67
2022/12/12 11:35:31;;;;;;;23.13;21.30;;;;;;;-2.31;100.00;101278.06;5163516;28;20053;-67
2022/12/12 11:38:42;;;;;;;22.48;20.10;;;;;;;-2.15;100.00;101287.84;5146407;28;20030;-67
2022/12/12 11:41:12;;;;;;;22.83;20.45;;;;;;;-2.10;100.00;101285.56;5146856;28;20042;-67
2022/12/12 11:43:43;;;;;;;22.95;18.83;;;;;;;-2.06;100.00;101273.66;5163270;28;20042;-67
2022/12/12 11:46:13;;;;;;;22.42;20.13;;;;;;;-1.96;100.00;101270.84;5163381;28;20442;-67
2022/12/12 11:48:46;;;;;;;18.90;17.42;;;;;;;-1.91;100.00;101257.94;5157483;28;20077;-67
2022/12/12 11:51:38;;;;;;;23.98;20.55;;;;;;;-1.83;100.00;101263.25;5146196;28;20031;-67